createdAt,value
2022-09-30T00:00:28.145Z,98246.50
2022-09-30T00:02:55.586Z,98241.81
2022-09-30T00:05:22.779Z,98231.09
2022-09-30T00:07:50.385Z,98247.84
2022-09-30T00:10:17.780Z,98234.13
2022-09-30T00:12:44.911Z,98228.06
2022-09-30T00:15:12.059Z,98229.94
2022-09-30T00:17:39.445Z,98220.16
2022-09-30T00:20:06.873Z,98232.66
2022-09-30T00:22:34.031Z,98230.16
2022-09-30T00:25:01.683Z,98232.00
2022-09-30T00:27:28.930Z,98232.72
2022-09-30T00:29:56.179Z,98225.97
2022-09-30T00:32:23.584Z,98218.28
2022-09-30T00:34:50.716Z,98227.78
2022-09-30T00:37:17.865Z,98219.78
2022-09-30T00:39:45.247Z,98214.38
2022-09-30T00:42:14.244Z,98208.19
2022-09-30T00:44:45.849Z,98219.38
2022-09-30T00:47:22.388Z,98208.47
2022-09-30T00:49:49.716Z,98217.78
2022-09-30T00:52:17.126Z,98217.63
2022-09-30T00:54:44.858Z,98205.59
2022-09-30T00:57:11.982Z,98207.00
2022-09-30T00:59:43.559Z,98207.63
2022-09-30T01:02:13.698Z,98208.91
2022-09-30T01:04:42.517Z,98208.16
2022-09-30T01:07:09.935Z,98210.50
2022-09-30T01:09:37.688Z,98216.34
2022-09-30T01:12:05.711Z,98221.72
2022-09-30T01:14:32.822Z,98211.13
2022-09-30T01:17:06.691Z,98218.75
2022-09-30T01:19:49.163Z,98220.84
2022-09-30T01:22:28.562Z,98223.69
2022-09-30T01:25:28.142Z,98229.09
2022-09-30T01:27:55.215Z,98213.69
2022-09-30T01:30:23.468Z,98202.28
2022-09-30T01:32:50.887Z,98224.34
2022-09-30T01:35:36.920Z,98221.62
2022-09-30T01:38:10.650Z,98222.03
2022-09-30T01:40:48.351Z,98233.59
2022-09-30T01:43:15.641Z,98227.41
2022-09-30T01:45:44.242Z,98217.91
2022-09-30T01:48:20.402Z,98218.50
2022-09-30T01:50:58.893Z,98211.53
2022-09-30T01:53:46.073Z,98212.84
2022-09-30T01:56:16.622Z,98208.91
2022-09-30T01:58:47.016Z,98204.19
2022-09-30T02:01:16.672Z,98201.16
2022-09-30T02:03:45.610Z,98201.31
2022-09-30T02:06:14.007Z,98210.37
2022-09-30T02:08:41.755Z,98199.03
2022-09-30T02:11:10.885Z,98192.44
2022-09-30T02:13:47.241Z,98205.13
2022-09-30T02:16:16.058Z,98196.53
2022-09-30T02:18:47.527Z,98190.78
2022-09-30T02:21:15.898Z,98209.19
2022-09-30T02:23:43.506Z,98217.78
2022-09-30T02:26:18.254Z,98222.66
2022-09-30T02:28:46.734Z,98220.56
2022-09-30T02:31:13.900Z,98219.44
2022-09-30T02:33:45.379Z,98204.22
2022-09-30T02:36:16.643Z,98196.19
2022-09-30T02:38:44.583Z,98166.56
2022-09-30T02:41:30.266Z,98149.44
2022-09-30T02:43:57.654Z,98161.69
2022-09-30T02:46:26.269Z,98168.69
2022-09-30T02:48:59.443Z,98177.25
2022-09-30T02:51:35.087Z,98175.81
2022-09-30T02:54:25.592Z,98175.62
2022-09-30T02:56:53.100Z,98159.50
2022-09-30T02:59:20.467Z,98166.16
2022-09-30T03:01:47.802Z,98160.00
2022-09-30T03:04:15.471Z,98156.03
2022-09-30T03:06:42.584Z,98151.34
2022-09-30T03:09:10.432Z,98153.28
2022-09-30T03:11:38.408Z,98157.47
2022-09-30T03:14:14.569Z,98154.00
2022-09-30T03:17:01.128Z,98157.88
2022-09-30T03:20:03.849Z,98152.34
2022-09-30T03:22:33.751Z,98153.19
2022-09-30T03:25:00.795Z,98177.06
2022-09-30T03:27:27.855Z,98183.56
2022-09-30T03:30:08.162Z,98182.94
2022-09-30T03:32:41.326Z,98198.06
2022-09-30T03:35:24.037Z,98183.03
2022-09-30T03:37:56.918Z,98179.53
2022-09-30T03:40:33.057Z,98183.47
2022-09-30T03:43:05.043Z,98189.22
2022-09-30T03:45:40.186Z,98190.41
2022-09-30T03:48:07.879Z,98199.19
2022-09-30T03:50:36.361Z,98180.09
2022-09-30T03:53:04.429Z,98186.97
2022-09-30T03:55:33.605Z,98186.87
2022-09-30T03:58:01.002Z,98188.84
2022-09-30T04:00:28.115Z,98198.81
2022-09-30T04:02:57.894Z,98192.31
2022-09-30T04:05:25.225Z,98197.72
2022-09-30T04:07:52.479Z,98190.44
2022-09-30T04:10:19.884Z,98198.28
2022-09-30T04:12:47.114Z,98200.09
2022-09-30T04:15:14.447Z,98195.41
2022-09-30T04:17:41.846Z,98198.19
2022-09-30T04:20:09.001Z,98197.41
2022-09-30T04:22:36.151Z,98199.38
2022-09-30T04:25:03.795Z,98197.25
2022-09-30T04:27:30.920Z,98189.88
2022-09-30T04:29:58.045Z,98195.84
2022-09-30T04:32:28.926Z,98201.81
2022-09-30T04:35:00.926Z,98203.50
2022-09-30T04:37:28.311Z,98215.78
2022-09-30T04:39:55.402Z,98214.78
2022-09-30T04:42:22.512Z,98231.34
2022-09-30T04:44:49.935Z,98222.50
2022-09-30T04:47:17.079Z,98232.72
2022-09-30T04:49:44.696Z,98235.66
2022-09-30T04:52:12.128Z,98232.25
2022-09-30T04:54:39.644Z,98234.22
2022-09-30T04:57:06.786Z,98231.47
2022-09-30T04:59:34.173Z,98237.75
2022-09-30T05:02:01.961Z,98231.78
2022-09-30T05:04:29.971Z,98235.63
2022-09-30T05:06:57.504Z,98234.81
2022-09-30T05:09:24.768Z,98241.37
2022-09-30T05:11:52.145Z,98249.41
2022-09-30T05:14:19.531Z,98239.72
2022-09-30T05:16:46.665Z,98236.56
2022-09-30T05:19:13.967Z,98240.22
2022-09-30T05:21:44.885Z,98240.31
2022-09-30T05:24:12.163Z,98246.22
2022-09-30T05:26:40.222Z,98237.50
2022-09-30T05:29:07.692Z,98240.94
2022-09-30T05:31:34.937Z,98252.84
2022-09-30T05:34:02.091Z,98249.00
2022-09-30T05:36:29.930Z,98259.31
2022-09-30T05:38:57.032Z,98252.56
2022-09-30T05:41:24.641Z,98254.53
2022-09-30T05:43:52.054Z,98258.78
2022-09-30T05:46:19.857Z,98263.28
2022-09-30T05:48:47.047Z,98254.91
2022-09-30T05:51:14.481Z,98262.28
2022-09-30T05:53:42.390Z,98260.06
2022-09-30T05:56:09.820Z,98265.34
2022-09-30T05:58:37.927Z,98251.25
2022-09-30T06:01:12.845Z,98248.91
2022-09-30T06:03:40.987Z,98252.69
2022-09-30T06:06:08.098Z,98263.94
2022-09-30T06:08:35.236Z,98266.75
2022-09-30T06:11:07.591Z,98254.22
2022-09-30T06:13:34.690Z,98267.66
2022-09-30T06:16:02.188Z,98257.22
2022-09-30T06:18:31.100Z,98260.84
2022-09-30T06:20:58.869Z,98262.81
2022-09-30T06:23:26.426Z,98268.13
2022-09-30T06:25:54.292Z,98265.66
2022-09-30T06:28:21.699Z,98265.38
2022-09-30T06:30:48.830Z,98285.75
2022-09-30T06:33:16.427Z,98277.28
2022-09-30T06:35:43.943Z,98286.78
2022-09-30T06:38:11.298Z,98291.97
2022-09-30T06:40:38.706Z,98290.72
2022-09-30T06:43:06.682Z,98291.78
2022-09-30T06:45:35.673Z,98300.63
2022-09-30T06:48:03.880Z,98298.78
2022-09-30T06:50:31.517Z,98288.34
2022-09-30T06:52:59.365Z,98300.91
2022-09-30T06:55:27.231Z,98305.72
2022-09-30T06:57:55.405Z,98305.19
2022-09-30T07:00:23.174Z,98306.34
2022-09-30T07:02:50.750Z,98312.38
2022-09-30T07:05:17.864Z,98315.94
2022-09-30T07:07:44.975Z,98315.09
2022-09-30T07:10:12.348Z,98319.03
2022-09-30T07:12:39.469Z,98315.22
2022-09-30T07:15:10.282Z,98321.88
2022-09-30T07:17:40.835Z,98323.59
2022-09-30T07:20:08.351Z,98328.78
2022-09-30T07:22:35.881Z,98334.03
2022-09-30T07:25:03.998Z,98328.78
2022-09-30T07:27:32.647Z,98333.69
2022-09-30T07:32:48.008Z,98336.38
2022-09-30T07:35:15.139Z,98349.81
2022-09-30T07:37:42.309Z,98345.97
2022-09-30T07:40:09.888Z,98350.56
2022-09-30T07:42:37.499Z,98346.78
2022-09-30T07:45:05.089Z,98352.91
2022-09-30T07:47:32.502Z,98356.13
2022-09-30T07:50:00.463Z,98361.56
2022-09-30T07:52:27.588Z,98360.25
2022-09-30T07:54:55.961Z,98366.19
2022-09-30T07:57:23.282Z,98363.22
2022-09-30T07:59:50.557Z,98366.47
2022-09-30T08:02:18.455Z,98370.56
2022-09-30T08:04:46.082Z,98374.97
2022-09-30T08:07:13.685Z,98373.78
2022-09-30T08:09:41.012Z,98372.53
2022-09-30T08:12:08.708Z,98373.06
2022-09-30T08:14:35.814Z,98382.31
2022-09-30T08:17:02.938Z,98381.38
2022-09-30T08:19:30.679Z,98391.63
2022-09-30T08:21:57.955Z,98386.34
2022-09-30T08:24:25.665Z,98402.34
2022-09-30T08:26:53.485Z,98398.56
2022-09-30T08:29:42.385Z,98403.69
2022-09-30T08:32:08.312Z,98403.25
2022-09-30T08:34:35.902Z,98399.47
2022-09-30T08:37:08.824Z,98410.47
2022-09-30T08:39:38.759Z,98410.88
2022-09-30T08:42:32.286Z,98425.56
2022-09-30T08:45:00.270Z,98429.97
2022-09-30T08:47:29.700Z,98434.69
2022-09-30T08:49:57.025Z,98439.22
2022-09-30T08:52:30.888Z,98436.81
2022-09-30T08:55:05.321Z,98440.16
2022-09-30T08:57:36.598Z,98437.06
2022-09-30T09:00:08.291Z,98432.09
2022-09-30T09:02:42.646Z,98435.00
2022-09-30T09:05:10.901Z,98433.19
2022-09-30T09:07:38.243Z,98428.66
2022-09-30T09:10:20.897Z,98436.63
2022-09-30T09:12:54.274Z,98444.53
2022-09-30T09:15:39.987Z,98451.69
2022-09-30T09:18:26.251Z,98452.59
2022-09-30T09:20:54.763Z,98449.78
2022-09-30T09:23:22.365Z,98463.47
2022-09-30T09:25:53.012Z,98465.25
2022-09-30T09:28:26.336Z,98466.31
2022-09-30T09:30:55.005Z,98477.19
2022-09-30T09:33:23.106Z,98476.87
2022-09-30T09:35:54.600Z,98490.72
2022-09-30T09:38:30.560Z,98490.44
2022-09-30T09:41:00.742Z,98487.22
2022-09-30T09:43:49.229Z,98481.16
2022-09-30T09:46:16.438Z,98485.88
2022-09-30T09:48:44.811Z,98483.19
2022-09-30T09:51:29.085Z,98492.25
2022-09-30T09:53:58.157Z,98488.59
2022-09-30T09:56:47.628Z,98497.97
2022-09-30T09:59:18.048Z,98503.75
2022-09-30T10:01:50.143Z,98501.34
2022-09-30T10:04:19.931Z,98495.12
2022-09-30T10:06:47.021Z,98504.28
2022-09-30T10:09:29.700Z,98501.19
2022-09-30T10:12:06.339Z,98503.69
2022-09-30T10:14:38.004Z,98497.50
2022-09-30T10:17:05.909Z,98497.66
2022-09-30T10:19:34.444Z,98508.59
2022-09-30T10:22:07.715Z,98512.16
2022-09-30T10:24:37.260Z,98511.28
2022-09-30T10:27:04.691Z,98513.28
2022-09-30T10:29:32.830Z,98521.63
2022-09-30T10:32:00.755Z,98527.69
2022-09-30T10:34:32.340Z,98527.22
2022-09-30T10:37:01.576Z,98528.41
2022-09-30T10:39:39.004Z,98535.00
2022-09-30T10:42:12.921Z,98536.28
2022-09-30T10:44:44.133Z,98550.00
2022-09-30T10:47:14.223Z,98547.69
2022-09-30T10:50:03.439Z,98545.09
2022-09-30T10:52:54.059Z,98559.16
2022-09-30T10:55:21.685Z,98553.63
2022-09-30T10:57:50.080Z,98553.44
2022-09-30T11:00:18.918Z,98554.09
2022-09-30T11:02:48.284Z,98565.72
2022-09-30T11:05:19.381Z,98567.13
2022-09-30T11:07:48.338Z,98573.56
2022-09-30T11:10:34.382Z,98585.47
2022-09-30T11:13:11.142Z,98597.50
2022-09-30T11:15:40.723Z,98615.28
2022-09-30T11:18:11.182Z,98612.19
2022-09-30T11:20:39.935Z,98608.22
2022-09-30T11:23:13.467Z,98630.28
2022-09-30T11:25:45.805Z,98633.16
2022-09-30T11:28:13.211Z,98637.88
2022-09-30T11:30:47.482Z,98640.06
2022-09-30T11:33:19.228Z,98647.72
2022-09-30T11:35:46.622Z,98648.66
2022-09-30T11:38:13.749Z,98648.97
2022-09-30T11:40:48.034Z,98650.38
2022-09-30T11:43:34.015Z,98658.69
2022-09-30T11:46:13.653Z,98664.91
2022-09-30T11:48:46.473Z,98662.97
2022-09-30T11:51:13.786Z,98679.34
2022-09-30T11:54:07.212Z,98679.34
2022-09-30T11:56:39.311Z,98689.25
2022-09-30T11:59:08.333Z,98683.50
2022-09-30T12:01:43.982Z,98682.19
2022-09-30T12:04:14.500Z,98696.03
2022-09-30T12:06:47.231Z,98698.72
2022-09-30T12:09:17.057Z,98695.69
2022-09-30T12:11:49.834Z,98705.44
2022-09-30T12:14:19.672Z,98707.28
2022-09-30T12:16:47.076Z,98717.44
2022-09-30T12:19:25.104Z,98715.84
2022-09-30T12:21:54.259Z,98717.28
2022-09-30T12:24:26.102Z,98711.28
2022-09-30T12:26:53.505Z,98715.00
2022-09-30T12:29:44.012Z,98717.66
2022-09-30T12:32:11.774Z,98734.38
2022-09-30T12:35:01.460Z,98719.31
2022-09-30T12:37:32.771Z,98722.09
2022-09-30T12:40:19.909Z,98726.22
2022-09-30T12:42:48.026Z,98718.03
2022-09-30T12:45:18.066Z,98722.81
2022-09-30T12:47:46.626Z,98731.31
2022-09-30T12:50:18.714Z,98743.22
2022-09-30T12:52:45.952Z,98742.56
2022-09-30T12:55:39.821Z,98752.50
2022-09-30T12:58:07.074Z,98747.97
2022-09-30T13:00:37.798Z,98762.66
2022-09-30T13:03:05.970Z,98762.19
2022-09-30T13:05:37.923Z,98760.78
2022-09-30T13:08:07.385Z,98756.69
2022-09-30T13:10:34.498Z,98759.44
2022-09-30T13:13:10.743Z,98754.16
2022-09-30T13:15:39.961Z,98755.06
2022-09-30T13:18:19.355Z,98763.28
2022-09-30T13:20:49.810Z,98770.16
2022-09-30T13:23:35.717Z,98779.66
2022-09-30T13:26:03.930Z,98783.78
2022-09-30T13:28:37.175Z,98797.00
2022-09-30T13:31:23.759Z,98799.66
2022-09-30T13:34:01.388Z,98800.56
2022-09-30T13:36:29.073Z,98816.59
2022-09-30T13:39:26.566Z,98822.22
2022-09-30T13:42:12.721Z,98817.09
2022-09-30T13:44:58.489Z,98827.34
2022-09-30T13:47:44.638Z,98805.06
2022-09-30T13:50:25.783Z,98819.37
2022-09-30T13:52:54.488Z,98817.81
2022-09-30T13:55:23.199Z,98811.66
2022-09-30T13:58:00.576Z,98812.37
2022-09-30T14:00:33.732Z,98806.91
2022-09-30T14:03:03.942Z,98806.41
2022-09-30T14:05:40.288Z,98803.22
2022-09-30T14:08:28.113Z,98788.91
2022-09-30T14:10:57.143Z,98785.22
2022-09-30T14:13:30.102Z,98786.63
2022-09-30T14:16:05.169Z,98798.03
2022-09-30T14:18:42.199Z,98803.63
2022-09-30T14:21:25.848Z,98811.69
2022-09-30T14:23:57.092Z,98806.00
2022-09-30T14:26:44.053Z,98809.28
2022-09-30T14:29:15.509Z,98804.69
2022-09-30T14:31:46.011Z,98809.00
2022-09-30T14:34:13.795Z,98806.41
2022-09-30T14:36:41.028Z,98813.78
2022-09-30T14:39:10.983Z,98811.28
2022-09-30T14:41:38.648Z,98806.09
2022-09-30T14:44:08.137Z,98807.69
2022-09-30T14:46:36.947Z,98799.09
2022-09-30T14:49:06.791Z,98799.22
2022-09-30T14:51:37.994Z,98804.69
2022-09-30T14:54:06.348Z,98814.13
2022-09-30T14:56:35.409Z,98811.94
2022-09-30T14:59:22.159Z,98818.28
2022-09-30T15:01:51.463Z,98819.25
2022-09-30T15:04:19.998Z,98819.19
2022-09-30T15:06:48.180Z,98826.25
2022-09-30T15:09:17.547Z,98828.78
2022-09-30T15:11:44.666Z,98819.06
2022-09-30T15:14:21.750Z,98818.28
2022-09-30T15:17:01.317Z,98829.69
2022-09-30T15:19:35.012Z,98835.63
2022-09-30T15:22:03.554Z,98841.69
2022-09-30T15:24:31.399Z,98840.28
2022-09-30T15:26:58.661Z,98837.00
2022-09-30T15:29:26.052Z,98844.13
2022-09-30T15:31:59.892Z,98855.53
2022-09-30T15:34:28.784Z,98858.19
2022-09-30T15:37:06.824Z,98854.62
2022-09-30T15:39:58.704Z,98857.75
2022-09-30T15:42:36.420Z,98864.66
2022-09-30T15:45:04.755Z,98864.84
2022-09-30T15:47:31.882Z,98868.50
2022-09-30T15:49:59.093Z,98865.56
2022-09-30T15:52:28.148Z,98866.84
2022-09-30T15:54:55.601Z,98874.38
2022-09-30T15:57:41.377Z,98879.38
2022-09-30T16:00:26.901Z,98882.22
2022-09-30T16:02:54.362Z,98878.81
2022-09-30T16:05:21.536Z,98896.09
2022-09-30T16:07:48.679Z,98891.34
2022-09-30T16:10:19.432Z,98890.25
2022-09-30T16:12:49.466Z,98891.47
2022-09-30T16:15:16.985Z,98897.72
2022-09-30T16:17:47.854Z,98891.84
2022-09-30T16:20:14.917Z,98884.28
2022-09-30T16:22:42.286Z,98897.00
2022-09-30T16:25:09.411Z,98897.06
2022-09-30T16:27:36.577Z,98903.78
2022-09-30T16:30:05.052Z,98914.91
2022-09-30T16:32:33.318Z,98907.00
2022-09-30T16:35:00.489Z,98900.44
2022-09-30T16:37:28.144Z,98899.06
2022-09-30T16:39:59.357Z,98902.34
2022-09-30T16:42:27.274Z,98910.06
2022-09-30T16:44:55.988Z,98907.97
2022-09-30T16:47:23.118Z,98903.72
2022-09-30T16:49:51.486Z,98919.31
2022-09-30T16:52:18.866Z,98913.59
2022-09-30T16:54:45.996Z,98924.25
2022-09-30T16:57:13.729Z,98928.63
2022-09-30T16:59:41.163Z,98926.75
2022-09-30T17:02:10.866Z,98932.78
2022-09-30T17:04:39.104Z,98937.06
2022-09-30T17:07:14.501Z,98940.75
2022-09-30T17:09:42.997Z,98933.22
2022-09-30T17:12:12.218Z,98934.41
2022-09-30T17:14:39.588Z,98927.53
2022-09-30T17:17:09.835Z,98925.53
2022-09-30T17:19:40.558Z,98931.59
2022-09-30T17:22:07.666Z,98946.06
2022-09-30T17:24:35.702Z,98944.13
2022-09-30T17:27:03.791Z,98946.22
2022-09-30T17:29:32.946Z,98944.31
2022-09-30T17:32:01.546Z,98935.31
2022-09-30T17:34:30.073Z,98945.66
2022-09-30T17:36:57.322Z,98947.16
2022-09-30T17:39:25.607Z,98945.91
2022-09-30T17:42:11.900Z,98951.06
2022-09-30T17:44:39.179Z,98956.81
2022-09-30T17:47:06.672Z,98950.81
2022-09-30T17:49:36.939Z,98960.97
2022-09-30T17:52:04.271Z,98964.03
2022-09-30T17:54:33.323Z,98969.88
2022-09-30T17:57:00.479Z,98971.31
2022-09-30T17:59:28.872Z,98970.00
2022-09-30T18:01:59.264Z,98972.53
2022-09-30T18:04:26.736Z,98972.91
2022-09-30T18:06:54.542Z,98968.34
2022-09-30T18:09:22.069Z,98965.28
2022-09-30T18:11:49.637Z,98974.69
2022-09-30T18:16:58.684Z,98983.06
2022-09-30T18:19:25.872Z,98973.88
2022-09-30T18:21:52.971Z,98974.31
2022-09-30T18:24:40.354Z,98969.63
2022-09-30T18:27:09.260Z,98972.00
2022-09-30T18:29:38.364Z,98983.72
2022-09-30T18:32:05.924Z,98984.44
2022-09-30T18:34:33.479Z,98992.44
2022-09-30T18:37:06.446Z,98981.72
2022-09-30T18:39:34.247Z,98985.63
2022-09-30T18:42:01.728Z,98990.84
2022-09-30T18:44:30.286Z,98992.56
2022-09-30T18:46:58.065Z,98994.19
2022-09-30T18:49:25.443Z,99004.78
2022-09-30T18:51:52.862Z,99006.19
2022-09-30T18:54:20.006Z,99005.97
2022-09-30T18:56:47.627Z,99016.53
2022-09-30T18:59:18.273Z,99015.47
2022-09-30T19:01:49.743Z,99023.50
2022-09-30T19:04:17.464Z,99024.91
2022-09-30T19:06:45.357Z,99024.38
2022-09-30T19:09:12.974Z,99024.19
2022-09-30T19:11:44.919Z,99018.13
2022-09-30T19:14:12.860Z,99019.16
2022-09-30T19:16:40.258Z,99029.44
2022-09-30T19:19:10.485Z,99045.06
2022-09-30T19:21:41.249Z,99039.34
2022-09-30T19:24:08.961Z,99047.69
2022-09-30T19:26:37.104Z,99072.31
2022-09-30T19:29:05.838Z,99081.22
2022-09-30T19:31:34.774Z,99070.25
2022-09-30T19:34:02.697Z,99073.44
2022-09-30T19:36:39.677Z,99054.19
2022-09-30T19:39:14.706Z,99052.16
2022-09-30T19:41:42.248Z,99054.44
2022-09-30T19:44:09.373Z,99050.63
2022-09-30T19:46:36.508Z,99052.28
2022-09-30T19:51:33.082Z,99064.53
2022-09-30T19:54:06.761Z,99058.50
2022-09-30T19:56:36.028Z,99053.22
2022-09-30T19:59:04.148Z,99047.94
2022-09-30T20:01:34.956Z,99055.91
2022-09-30T20:04:05.182Z,99041.69
2022-09-30T20:06:33.047Z,99048.63
2022-09-30T20:09:07.096Z,99048.16
2022-09-30T20:11:36.373Z,99038.22
2022-09-30T20:14:43.141Z,99052.28
2022-09-30T20:17:12.225Z,99048.78
2022-09-30T20:19:39.349Z,99048.78
2022-09-30T20:22:06.796Z,99033.66
2022-09-30T20:24:34.190Z,99034.50
2022-09-30T20:27:01.305Z,99037.88
2022-09-30T20:29:28.434Z,99055.78
2022-09-30T20:31:56.005Z,99039.28
2022-09-30T20:34:23.282Z,99043.63
2022-09-30T20:36:50.455Z,99031.22
2022-09-30T20:39:17.970Z,99032.41
2022-09-30T20:41:45.837Z,99030.41
2022-09-30T20:44:13.133Z,99027.84
2022-09-30T20:46:41.613Z,99012.59
2022-09-30T20:49:09.440Z,99017.34
2022-09-30T20:51:36.592Z,99013.38
2022-09-30T20:54:06.399Z,99009.53
2022-09-30T20:56:55.680Z,99013.38
2022-09-30T20:59:20.959Z,99011.56
2022-09-30T21:01:48.112Z,99019.19
2022-09-30T21:04:15.588Z,99021.62
2022-09-30T21:06:42.997Z,99012.81
2022-09-30T21:09:13.270Z,99016.09
2022-09-30T21:11:42.103Z,99024.75
2022-09-30T21:14:09.553Z,99019.72
2022-09-30T21:16:36.763Z,99026.34
2022-09-30T21:19:03.892Z,99025.00
2022-09-30T21:21:31.615Z,99025.72
2022-09-30T21:23:59.931Z,99016.69
2022-09-30T21:26:27.425Z,99009.41
2022-09-30T21:28:54.878Z,99023.16
2022-09-30T21:31:24.123Z,99027.97
2022-09-30T21:33:56.367Z,99029.47
2022-09-30T21:36:24.222Z,99034.66
2022-09-30T21:38:51.456Z,99039.59
2022-09-30T21:41:19.594Z,99044.34
2022-09-30T21:43:47.190Z,99038.13
2022-09-30T21:46:15.132Z,99029.09
2022-09-30T21:48:42.554Z,99026.28
2022-09-30T21:51:10.167Z,99041.91
2022-09-30T21:53:38.875Z,99030.94
2022-09-30T21:56:09.492Z,99020.41
2022-09-30T21:58:36.971Z,99021.81
2022-09-30T22:01:05.038Z,99032.09
2022-09-30T22:03:37.355Z,99028.75
2022-09-30T22:06:07.113Z,99051.84
2022-09-30T22:08:40.206Z,99059.25
2022-09-30T22:11:09.152Z,99050.00
2022-09-30T22:13:37.026Z,99052.66
2022-09-30T22:16:05.201Z,99036.72
2022-09-30T22:18:33.015Z,99034.13
2022-09-30T22:21:08.001Z,99025.19
2022-09-30T22:23:35.111Z,99017.69
2022-09-30T22:26:22.377Z,99021.91
2022-09-30T22:28:57.600Z,99014.53
2022-09-30T22:31:26.301Z,99016.94
2022-09-30T22:34:13.163Z,99020.22
2022-09-30T22:36:59.117Z,99021.53
2022-09-30T22:39:26.243Z,99016.53
2022-09-30T22:41:54.456Z,99022.03
2022-09-30T22:44:22.079Z,99019.06
2022-09-30T22:46:49.271Z,99009.13
2022-09-30T22:49:16.707Z,99004.53
2022-09-30T22:51:43.831Z,98995.13
2022-09-30T22:54:11.788Z,98994.75
2022-09-30T22:56:39.150Z,98996.09
2022-09-30T22:59:06.858Z,98992.47
2022-09-30T23:01:34.236Z,99000.88
2022-09-30T23:04:01.947Z,98999.38
2022-09-30T23:06:29.834Z,99000.66
2022-09-30T23:08:56.942Z,99007.97
2022-09-30T23:11:24.409Z,99016.09
2022-09-30T23:13:58.178Z,99016.75
2022-09-30T23:16:27.096Z,99020.28
2022-09-30T23:18:54.515Z,99011.56
2022-09-30T23:21:21.717Z,99015.28
2022-09-30T23:23:49.100Z,99016.13
2022-09-30T23:26:16.148Z,99009.53
2022-09-30T23:28:43.318Z,99013.66
2022-09-30T23:31:11.583Z,99013.75
2022-09-30T23:33:49.184Z,98999.97
2022-09-30T23:36:18.433Z,99002.72
2022-09-30T23:38:46.040Z,99004.69
2022-09-30T23:41:14.125Z,98993.94
2022-09-30T23:43:48.412Z,98995.56
2022-09-30T23:46:16.475Z,99001.31
2022-09-30T23:48:45.886Z,98995.44
2022-09-30T23:51:13.532Z,98991.88
2022-09-30T23:53:40.712Z,98982.97
2022-09-30T23:56:09.999Z,98971.50
2022-09-30T23:58:37.346Z,98962.41
